Time;durP1;ratioP1;P1;durP2;ratioP2;P2;SDS_P1;SDS_P2;PMS_P1;PMS_P2;Temp;Humidity;BMP_temperature;BMP_pressure;BME280_temperature;BME280_humidity;BME280_pressure;Samples;Min_cycle;Max_cycle;Signal;HPM_P1;HPM_P2
2023/02/20 00:00:55;;;;;;;13.52;3.25;;;23.00;28.70;;;;;;5012286;28;20109;-67
2023/02/20 00:03:22;;;;;;;13.32;2.60;;;22.90;28.30;;;;;;5011805;28;20126;-64
2023/02/20 00:05:48;;;;;;;17.63;3.50;;;23.00;28.70;;;;;;5011889;28;20082;-63
2023/02/20 00:08:14;;;;;;;13.75;3.00;;;23.00;28.70;;;;;;5011720;28;20524;-63
2023/02/20 00:10:41;;;;;;;9.63;3.30;;;23.10;28.40;;;;;;5012025;28;20456;-61
2023/02/20 00:13:07;;;;;;;17.80;3.20;;;23.10;28.40;;;;;;5010572;28;20081;-62
2023/02/20 00:15:34;;;;;;;16.73;3.03;;;23.10;28.70;;;;;;5011553;28;20531;-62
2023/02/20 00:18:00;;;;;;;11.25;2.90;;;23.10;28.80;;;;;;5011376;28;20096;-63
2023/02/20 00:20:29;;;;;;;13.43;3.60;;;23.00;29.00;;;;;;5010932;28;20132;-62
2023/02/20 00:22:55;;;;;;;8.40;2.70;;;23.00;29.00;;;;;;5012082;28;20539;-63
2023/02/20 00:25:22;;;;;;;14.55;3.30;;;22.80;29.00;;;;;;5012679;28;20141;-63
2023/02/20 00:27:49;;;;;;;13.75;2.72;;;22.70;28.90;;;;;;5011997;28;20070;-65
2023/02/20 00:30:18;;;;;;;7.88;2.80;;;22.70;29.20;;;;;;5011288;28;20066;-63
2023/02/20 00:32:46;;;;;;;13.32;2.85;;;22.60;29.10;;;;;;5011696;28;20149;-66
2023/02/20 00:35:13;;;;;;;16.30;3.67;;;22.60;30.00;;;;;;5011687;28;20616;-65
2023/02/20 00:37:40;;;;;;;20.48;3.55;;;22.50;29.50;;;;;;5011233;28;20090;-62
2023/02/20 00:40:07;;;;;;;23.77;4.00;;;22.40;29.30;;;;;;5011579;28;20311;-65
2023/02/20 00:42:34;;;;;;;12.23;3.35;;;22.30;30.00;;;;;;5011146;28;20106;-64
2023/02/20 00:45:00;;;;;;;15.63;3.67;;;22.40;29.60;;;;;;5011445;28;20182;-63
2023/02/20 00:47:27;;;;;;;12.77;3.60;;;22.50;29.40;;;;;;5011727;28;20189;-63
2023/02/20 00:49:53;;;;;;;12.57;3.30;;;22.40;29.70;;;;;;5010890;28;20086;-65
2023/02/20 00:52:20;;;;;;;21.33;4.03;;;22.30;30.00;;;;;;5010966;28;20205;-64
2023/02/20 00:54:46;;;;;;;18.08;3.75;;;22.30;29.90;;;;;;5010743;28;20102;-63
2023/02/20 00:57:12;;;;;;;15.85;3.42;;;22.30;29.70;;;;;;5012082;28;20074;-64
2023/02/20 00:59:39;;;;;;;12.80;3.72;;;22.20;29.80;;;;;;5010405;28;20090;-61
2023/02/20 01:02:05;;;;;;;12.93;3.88;;;22.10;29.60;;;;;;5009204;28;20082;-63
2023/02/20 01:04:32;;;;;;;13.27;3.58;;;22.10;30.30;;;;;;5010906;28;20165;-62
2023/02/20 01:06:58;;;;;;;12.70;3.78;;;22.10;30.40;;;;;;5011048;28;20086;-64
2023/02/20 01:09:26;;;;;;;11.63;3.13;;;22.00;30.80;;;;;;5011589;28;20133;-64
2023/02/20 01:11:54;;;;;;;9.55;3.88;;;21.90;30.40;;;;;;5010835;28;20081;-63
2023/02/20 01:14:20;;;;;;;18.88;3.88;;;21.80;30.20;;;;;;5010616;28;20063;-64
2023/02/20 01:16:50;;;;;;;14.63;4.10;;;21.80;30.80;;;;;;5010988;28;20136;-64
2023/02/20 01:19:18;;;;;;;17.65;3.75;;;21.70;30.70;;;;;;5010894;28;20074;-65
2023/02/20 01:21:44;;;;;;;18.25;3.78;;;21.60;30.40;;;;;;5010426;28;20067;-63
2023/02/20 01:24:11;;;;;;;11.43;3.75;;;21.60;31.30;;;;;;5011500;28;20085;-63
2023/02/20 01:26:39;;;;;;;17.77;3.65;;;21.50;31.80;;;;;;5011132;28;20547;-62
2023/02/20 01:29:06;;;;;;;17.40;4.90;;;21.30;31.90;;;;;;5009932;28;20081;-63
2023/02/20 01:31:32;;;;;;;16.02;5.28;;;21.20;32.10;;;;;;5010376;28;20128;-62
2023/02/20 01:33:58;;;;;;;21.42;5.00;;;21.10;32.60;;;;;;5011009;28;20075;-64
2023/02/20 01:36:26;;;;;;;11.82;4.85;;;20.90;32.70;;;;;;5010716;28;20532;-64
2023/02/20 01:38:53;;;;;;;11.30;4.70;;;20.80;33.00;;;;;;5010335;28;20082;-63
2023/02/20 01:41:19;;;;;;;16.25;5.07;;;20.70;33.40;;;;;;5011182;28;20097;-64
2023/02/20 01:43:46;;;;;;;20.38;5.75;;;20.50;33.30;;;;;;5008594;28;20070;-65
2023/02/20 01:46:38;;;;;;;20.83;6.28;;;20.40;33.50;;;;;;5009619;28;20090;-65
2023/02/20 01:49:12;;;;;;;19.83;6.03;;;20.30;33.50;;;;;;5009628;28;20157;-64
2023/02/20 01:51:42;;;;;;;22.42;6.60;;;20.10;33.60;;;;;;5009742;28;20178;-60
2023/02/20 01:54:13;;;;;;;24.60;8.20;;;20.00;33.90;;;;;;5009767;28;20114;-63
2023/02/20 01:56:40;;;;;;;42.30;8.98;;;19.80;33.80;;;;;;5010067;28;20100;-64
2023/02/20 01:59:08;;;;;;;24.92;9.05;;;19.70;34.60;;;;;;5010918;28;20536;-63
2023/02/20 02:01:34;;;;;;;32.60;11.82;;;19.50;34.80;;;;;;5010264;28;20070;-64
2023/02/20 02:04:07;;;;;;;27.20;9.15;;;19.40;35.20;;;;;;5010587;28;20129;-64
2023/02/20 02:06:37;;;;;;;27.90;7.70;;;19.10;35.60;;;;;;5010148;28;20087;-64
2023/02/20 02:09:12;;;;;;;34.83;7.72;;;19.00;36.20;;;;;;5010209;28;20070;-66
2023/02/20 02:11:38;;;;;;;37.22;7.03;;;18.80;36.80;;;;;;5005309;28;20532;-64
2023/02/20 02:14:06;;;;;;;24.17;6.55;;;18.70;37.50;;;;;;5008318;28;20226;-64
2023/02/20 02:16:54;;;;;;;30.02;7.18;;;18.70;37.90;;;;;;5008277;28;20428;-63
2023/02/20 02:19:29;;;;;;;30.92;8.30;;;18.60;38.30;;;;;;5007367;28;20074;-62
2023/02/20 02:22:20;;;;;;;46.42;11.52;;;18.50;38.80;;;;;;5008884;28;20066;-64
2023/02/20 02:25:01;;;;;;;48.20;13.38;;;18.30;38.70;;;;;;5008594;28;20113;-64
2023/02/20 02:28:04;;;;;;;62.38;16.08;;;18.30;38.20;;;;;;5009865;28;20098;-63
2023/02/20 02:30:43;;;;;;;64.82;15.13;;;18.20;37.30;;;;;;5008734;28;20074;-63
2023/02/20 02:33:15;;;;;;;59.10;14.27;;;18.10;38.40;;;;;;5009295;28;20165;-65
2023/02/20 02:36:05;;;;;;;54.60;12.85;;;18.10;38.90;;;;;;5007594;28;20098;-64
2023/02/20 02:38:53;;;;;;;63.92;12.75;;;18.10;38.80;;;;;;5008765;28;20078;-64
2023/02/20 02:41:48;;;;;;;37.40;11.88;;;18.00;38.60;;;;;;5008540;28;20694;-63
2023/02/20 02:44:33;;;;;;;55.92;11.55;;;17.90;38.90;;;;;;5009097;28;21706;-63
2023/02/20 02:47:12;;;;;;;49.60;13.00;;;17.80;39.50;;;;;;5008405;28;20083;-63
2023/02/20 02:49:58;;;;;;;48.45;11.18;;;17.80;40.30;;;;;;5008065;28;20086;-62
2023/02/20 02:52:47;;;;;;;50.40;11.93;;;17.70;40.40;;;;;;5008470;28;20526;-64
2023/02/20 02:55:20;;;;;;;57.95;11.38;;;17.60;40.10;;;;;;5007938;28;20547;-66
2023/02/20 02:57:47;;;;;;;60.45;12.63;;;17.60;40.60;;;;;;5010427;28;20096;-65
2023/02/20 03:00:40;;;;;;;58.15;11.18;;;17.50;40.90;;;;;;5007892;28;20074;-65
2023/02/20 03:03:27;;;;;;;56.22;10.20;;;17.40;41.60;;;;;;5007442;28;20599;-64
2023/02/20 03:05:53;;;;;;;;;;;17.40;42.50;;;;;;5009170;28;20093;-65
2023/02/20 03:08:32;;;;;;;48.05;10.27;;;17.30;42.70;;;;;;5008850;28;19958;-65
2023/02/20 03:11:16;;;;;;;53.95;10.70;;;17.30;42.40;;;;;;5008242;28;20152;-66
2023/02/20 03:17:01;;;;;;;37.88;8.73;;;17.10;43.10;;;;;;5004458;28;20085;-68
2023/02/20 03:19:36;;;;;;;53.10;10.88;;;17.10;43.40;;;;;;5007841;28;20109;-66
2023/02/20 03:22:07;;;;;;;50.50;11.25;;;17.00;43.80;;;;;;5008887;28;20157;-65
2023/02/20 03:24:53;;;;;;;53.90;13.82;;;16.90;44.10;;;;;;5009502;28;20121;-67
2023/02/20 03:27:40;;;;;;;55.60;13.85;;;16.80;44.60;;;;;;5008410;28;20086;-65
2023/02/20 03:30:22;;;;;;;62.70;15.93;;;16.70;44.50;;;;;;5008515;28;20524;-64
2023/02/20 03:44:03;;;;;;;51.05;14.70;;;16.40;46.20;;;;;;5009451;28;20121;-67
2023/02/20 03:46:32;;;;;;;76.93;16.67;;;16.30;46.60;;;;;;5008227;28;20471;-65
2023/02/20 03:49:06;;;;;;;69.80;16.48;;;16.20;46.60;;;;;;5008248;28;20062;-68
2023/02/20 03:51:33;;;;;;;62.15;15.02;;;16.20;46.70;;;;;;5007417;28;20066;-65
2023/02/20 03:54:00;;;;;;;66.35;17.17;;;16.10;46.90;;;;;;5007963;28;20106;-65
2023/02/20 03:56:32;;;;;;;84.85;18.42;;;16.00;47.10;;;;;;5009054;28;20536;-67
2023/02/20 03:59:05;;;;;;;54.38;15.48;;;16.00;47.90;;;;;;5008528;28;20075;-65
2023/02/20 04:01:34;;;;;;;80.68;19.05;;;16.00;48.50;;;;;;5007545;28;20098;-62
2023/02/20 04:04:02;;;;;;;81.95;18.45;;;16.00;48.00;;;;;;5008771;28;20552;-65
2023/02/20 04:06:32;;;;;;;70.68;19.95;;;15.90;48.20;;;;;;5008114;28;20433;-65
2023/02/20 04:09:05;;;;;;;61.92;17.58;;;15.90;48.10;;;;;;5008435;28;20094;-67
2023/02/20 04:11:40;;;;;;;64.78;17.50;;;15.90;47.70;;;;;;5008192;28;20077;-63
2023/02/20 04:14:07;;;;;;;57.65;17.52;;;15.80;47.50;;;;;;5008212;28;20081;-64
2023/02/20 04:16:39;;;;;;;47.95;14.82;;;15.80;47.80;;;;;;5008650;28;20097;-64
2023/02/20 04:19:05;;;;;;;44.13;13.45;;;15.70;47.80;;;;;;5004960;28;20094;-66
2023/02/20 04:21:38;;;;;;;56.33;15.30;;;15.70;47.50;;;;;;5007949;28;20073;-64
2023/02/20 04:24:17;;;;;;;65.57;16.88;;;15.70;46.90;;;;;;5008742;28;20158;-66
2023/02/20 04:26:44;;;;;;;49.33;15.50;;;15.60;47.20;;;;;;5010079;28;20117;-62
2023/02/20 04:29:11;;;;;;;66.78;18.73;;;15.60;47.80;;;;;;5012675;28;20106;-63
2023/02/20 04:31:37;;;;;;;93.40;22.17;;;15.50;47.50;;;;;;5010289;28;20101;-66
2023/02/20 04:34:03;;;;;;;80.57;20.35;;;15.40;47.80;;;;;;5011640;28;20081;-65
2023/02/20 04:36:30;;;;;;;;;;;15.50;47.50;;;;;;5011920;28;20070;-63
2023/02/20 04:38:56;;;;;;;52.38;14.45;;;15.60;47.40;;;;;;5011339;28;19973;-64
2023/02/20 04:41:22;;;;;;;;;;;15.60;47.60;;;;;;5010985;28;20113;-64
2023/02/20 04:43:49;;;;;;;41.05;12.68;;;15.60;47.70;;;;;;5011359;28;20395;-64
2023/02/20 04:46:15;;;;;;;49.00;12.07;;;15.70;48.10;;;;;;5011307;28;20094;-64
2023/02/20 04:48:42;;;;;;;45.80;10.68;;;15.70;48.40;;;;;;5011000;28;20071;-65
2023/02/20 04:51:09;;;;;;;;;;;15.80;48.70;;;;;;5011402;28;20071;-62
2023/02/20 04:53:35;;;;;;;;;;;15.80;48.80;;;;;;5011343;28;19984;-67
2023/02/20 04:56:02;;;;;;;37.75;10.25;;;15.80;49.10;;;;;;5011369;28;19974;-64
2023/02/20 04:58:28;;;;;;;44.78;10.13;;;15.90;49.20;;;;;;5012850;28;20078;-67
2023/02/20 05:00:55;;;;;;;26.48;7.72;;;15.80;49.40;;;;;;5010968;28;20100;-64
2023/02/20 05:03:21;;;;;;;43.00;7.60;;;15.80;49.90;;;;;;5010311;28;20089;-65
2023/02/20 05:05:47;;;;;;;;;;;15.80;50.40;;;;;;5011547;28;20133;-67
2023/02/20 05:08:13;;;;;;;36.35;6.45;;;15.80;50.90;;;;;;5011866;28;19966;-65
2023/02/20 05:10:40;;;;;;;32.83;6.32;;;15.90;51.20;;;;;;5012175;28;20512;-66
2023/02/20 05:13:06;;;;;;;31.52;6.10;;;15.80;51.50;;;;;;5011388;28;20075;-68
2023/02/20 05:15:33;;;;;;;27.70;6.40;;;15.80;51.70;;;;;;5010587;28;20074;-66
2023/02/20 05:17:59;;;;;;;29.35;7.40;;;15.80;51.90;;;;;;5010301;28;20105;-66
2023/02/20 05:22:17;;;;;;;29.20;6.82;;;15.70;52.20;;;;;;5009074;28;20093;-66
2023/02/20 05:23:12;;;;;;;29.27;6.93;;;15.70;52.30;;;;;;5010191;28;20085;-65
2023/02/20 05:25:39;;;;;;;31.23;6.70;;;15.70;52.80;;;;;;5011008;28;20110;-66
2023/02/20 05:28:05;;;;;;;32.22;6.30;;;15.60;53.00;;;;;;5011188;28;20093;-68
2023/02/20 05:30:32;;;;;;;32.67;6.38;;;15.60;53.20;;;;;;5011372;28;20120;-67
2023/02/20 05:32:58;;;;;;;;;;;15.60;53.70;;;;;;5011035;28;20074;-66
2023/02/20 05:35:24;;;;;;;18.27;4.88;;;15.50;53.70;;;;;;5010916;28;19966;-65
2023/02/20 05:37:50;;;;;;;;;;;15.60;53.90;;;;;;5012282;28;20077;-65
2023/02/20 05:40:16;;;;;;;16.58;4.60;;;15.50;54.00;;;;;;5011511;28;19973;-67
2023/02/20 05:42:42;;;;;;;;;;;15.40;54.20;;;;;;5010491;28;20074;-66
2023/02/20 05:45:09;;;;;;;21.75;4.63;;;15.40;54.60;;;;;;5009456;28;20090;-67
2023/02/20 05:47:38;;;;;;;;;;;15.40;55.00;;;;;;5010177;28;20629;-64
2023/02/20 05:50:05;;;;;;;13.57;4.18;;;15.30;55.30;;;;;;5009636;28;19965;-67
2023/02/20 05:52:31;;;;;;;23.38;6.03;;;15.30;55.50;;;;;;5010141;28;20439;-63
2023/02/20 05:54:57;;;;;;;20.02;6.82;;;15.30;55.80;;;;;;5009367;28;20303;-64
2023/02/20 05:57:23;;;;;;;;;;;15.20;56.50;;;;;;5011709;28;20078;-67
2023/02/20 05:59:50;;;;;;;23.67;6.18;;;15.10;57.20;;;;;;5009601;28;20087;-66
2023/02/20 06:02:16;;;;;;;;;;;15.10;57.80;;;;;;5009306;28;20117;-67
2023/02/20 06:04:42;;;;;;;27.58;7.80;;;15.10;58.40;;;;;;5009521;28;19982;-64
2023/02/20 06:07:11;;;;;;;;;;;15.00;58.70;;;;;;5009404;28;20546;-65
2023/02/20 06:09:42;;;;;;;25.02;9.45;;;15.00;59.20;;;;;;5008788;28;19958;-66
2023/02/20 06:12:08;;;;;;;42.65;11.25;;;14.90;59.60;;;;;;5010281;28;20116;-68
2023/02/20 06:14:35;;;;;;;40.05;10.27;;;14.90;60.00;;;;;;5011245;28;20190;-71
2023/02/20 06:17:01;;;;;;;;;;;14.90;60.30;;;;;;5011457;28;20097;-68
2023/02/20 06:19:27;;;;;;;27.60;7.65;;;14.90;60.70;;;;;;5006781;28;19962;-65
2023/02/20 06:21:53;;;;;;;;;;;14.90;61.20;;;;;;5008975;28;20083;-65
2023/02/20 06:24:20;;;;;;;28.15;8.48;;;14.80;61.90;;;;;;5009899;28;20408;-64
2023/02/20 06:26:47;;;;;;;18.15;7.55;;;14.80;62.30;;;;;;5010756;28;20101;-66
2023/02/20 06:29:15;;;;;;;26.25;6.97;;;14.70;62.80;;;;;;5010407;28;20214;-65
2023/02/20 06:31:42;;;;;;;15.63;6.90;;;14.70;63.40;;;;;;5010367;28;20440;-63
2023/02/20 06:34:09;;;;;;;14.40;5.97;;;14.70;63.80;;;;;;5009629;28;20070;-65
2023/02/20 06:36:38;;;;;;;23.27;6.05;;;14.60;64.30;;;;;;5010761;28;20148;-65
2023/02/20 06:39:07;;;;;;;16.63;5.00;;;14.60;64.50;;;;;;5008731;28;20152;-66
2023/02/20 06:41:33;;;;;;;19.13;5.32;;;14.50;65.30;;;;;;5007969;28;20087;-63
2023/02/20 06:44:00;;;;;;;16.25;5.07;;;14.50;65.80;;;;;;5009716;28;20079;-63
2023/02/20 06:46:26;;;;;;;20.58;5.38;;;14.50;66.50;;;;;;5008459;28;20463;-64
2023/02/20 06:48:55;;;;;;;22.30;5.20;;;14.40;67.00;;;;;;5008702;28;20074;-64
2023/02/20 06:51:40;;;;;;;14.50;4.35;;;14.40;68.30;;;;;;5009937;28;20066;-64
2023/02/20 06:54:09;;;;;;;25.63;7.32;;;14.40;67.90;;;;;;5008746;28;20102;-64
2023/02/20 06:56:36;;;;;;;24.92;6.03;;;14.40;68.10;;;;;;5009669;28;20078;-65
2023/02/20 06:59:04;;;;;;;21.13;6.40;;;14.30;68.40;;;;;;5009665;28;20086;-65
2023/02/20 07:01:39;;;;;;;25.27;7.18;;;14.40;68.50;;;;;;5009465;28;20071;-65
2023/02/20 07:04:06;;;;;;;26.48;7.53;;;14.20;68.80;;;;;;5008292;28;20073;-64
2023/02/20 07:06:32;;;;;;;21.63;8.25;;;14.20;69.10;;;;;;5009739;28;20086;-62
2023/02/20 07:09:01;;;;;;;29.20;9.25;;;14.10;69.70;;;;;;5008847;28;20532;-66
2023/02/20 07:11:27;;;;;;;;;;;14.00;69.90;;;;;;5009029;28;20103;-65
2023/02/20 07:13:53;;;;;;;33.30;10.98;;;13.90;69.90;;;;;;5008859;28;20641;-65
2023/02/20 07:16:19;;;;;;;;;;;13.80;70.00;;;;;;5008696;28;20078;-64
2023/02/20 07:18:46;;;;;;;30.85;9.60;;;13.80;70.70;;;;;;5007932;28;20000;-64
2023/02/20 07:21:12;;;;;;;;;;;13.80;71.30;;;;;;5006074;28;20797;-66
2023/02/20 07:23:38;;;;;;;24.02;7.50;;;13.80;72.10;;;;;;5008821;28;19958;-65
2023/02/20 07:26:04;;;;;;;;;;;13.80;72.80;;;;;;5008782;28;20090;-64
2023/02/20 07:28:33;;;;;;;20.77;6.25;;;13.70;73.60;;;;;;5009106;28;19980;-63
2023/02/20 07:31:00;;;;;;;14.70;5.40;;;13.70;74.50;;;;;;5008533;28;20071;-65
2023/02/20 07:33:26;;;;;;;;;;;13.70;75.10;;;;;;5009573;28;20066;-64
2023/02/20 07:35:52;;;;;;;21.60;5.30;;;13.70;75.70;;;;;;5009133;28;20009;-66
2023/02/20 07:38:18;;;;;;;;;;;13.70;75.90;;;;;;5009234;28;20102;-65
2023/02/20 07:40:44;;;;;;;17.42;5.57;;;13.70;76.00;;;;;;5007546;28;19962;-64
2023/02/20 07:43:11;;;;;;;;;;;13.70;76.20;;;;;;5008972;28;20443;-65
2023/02/20 07:45:38;;;;;;;14.57;5.30;;;13.60;76.70;;;;;;5008079;28;20013;-63
2023/02/20 07:48:04;;;;;;;15.75;6.25;;;13.60;77.00;;;;;;5007744;28;20105;-64
2023/02/20 07:50:31;;;;;;;21.02;5.25;;;13.50;77.30;;;;;;5008777;28;20105;-65
2023/02/20 07:52:57;;;;;;;;;;;13.60;77.70;;;;;;5009812;28;20081;-66
2023/02/20 07:55:23;;;;;;;16.42;5.43;;;13.50;77.90;;;;;;5008979;28;19962;-66
2023/02/20 07:57:53;;;;;;;;;;;13.50;78.50;;;;;;5011380;28;20079;-64
2023/02/20 08:00:20;;;;;;;16.50;5.13;;;13.50;78.80;;;;;;5012622;28;20008;-64
2023/02/20 08:02:47;;;;;;;19.20;4.88;;;13.50;79.20;;;;;;5012331;28;20090;-65
2023/02/20 08:05:13;;;;;;;;;;;13.50;79.50;;;;;;5012709;28;20452;-66
2023/02/20 08:07:47;;;;;;;16.73;4.80;;;13.40;79.80;;;;;;5012814;28;19957;-62
2023/02/20 08:10:16;;;;;;;19.63;6.07;;;13.30;80.60;;;;;;5012091;28;20078;-65
2023/02/20 08:12:43;;;;;;;11.95;6.47;;;13.30;80.80;;;;;;5011637;28;20077;-63
2023/02/20 08:15:13;;;;;;;20.38;5.40;;;13.30;80.70;;;;;;5010963;28;20070;-64
2023/02/20 08:17:40;;;;;;;15.23;5.45;;;13.30;80.90;;;;;;5011847;28;20086;-64
2023/02/20 08:20:07;;;;;;;15.88;5.40;;;13.30;81.20;;;;;;5012562;28;20136;-65
2023/02/20 08:22:34;;;;;;;20.95;5.90;;;13.10;81.60;;;;;;5008572;28;20081;-64
2023/02/20 08:25:02;;;;;;;23.10;6.03;;;13.10;82.20;;;;;;5011330;28;20561;-66
2023/02/20 08:27:30;;;;;;;14.20;5.70;;;13.00;82.80;;;;;;5013628;28;20082;-65
2023/02/20 08:29:56;;;;;;;16.70;5.22;;;13.10;83.50;;;;;;5011379;28;20614;-65
2023/02/20 08:32:23;;;;;;;20.25;5.78;;;13.10;84.00;;;;;;5012322;28;20102;-66
2023/02/20 08:34:49;;;;;;;;;;;13.10;84.30;;;;;;5012575;28;20496;-66
2023/02/20 08:37:15;;;;;;;18.60;5.85;;;13.10;84.70;;;;;;5012167;28;20052;-64
2023/02/20 08:39:42;;;;;;;14.73;5.70;;;13.00;85.20;;;;;;5012401;28;20090;-63
2023/02/20 08:42:08;;;;;;;;;;;13.00;86.30;;;;;;5012085;28;20180;-65
2023/02/20 08:44:34;;;;;;;15.45;6.03;;;12.90;86.60;;;;;;5011483;28;20475;-65
2023/02/20 08:47:00;;;;;;;;;;;13.00;87.00;;;;;;5012172;28;20112;-64
2023/02/20 08:49:27;;;;;;;20.20;6.07;;;13.00;87.30;;;;;;5012036;28;19962;-65
2023/02/20 08:51:54;;;;;;;;;;;12.90;87.90;;;;;;5012194;28;20075;-65
2023/02/20 08:54:20;;;;;;;19.92;6.40;;;12.80;88.40;;;;;;5011974;28;20550;-64
2023/02/20 08:56:47;;;;;;;21.00;6.63;;;12.80;89.00;;;;;;5011986;28;20110;-64
2023/02/20 08:59:13;;;;;;;;;;;12.70;89.50;;;;;;5012839;28;20076;-65
2023/02/20 09:01:42;;;;;;;21.85;6.22;;;12.80;90.00;;;;;;5011349;28;19997;-65
2023/02/20 09:04:10;;;;;;;21.35;6.95;;;12.80;90.30;;;;;;5011346;28;20101;-65
2023/02/20 09:06:37;;;;;;;18.50;6.72;;;12.80;90.50;;;;;;5011610;28;20091;-64
2023/02/20 09:09:04;;;;;;;25.77;6.97;;;12.80;90.90;;;;;;5010639;28;20078;-65
2023/02/20 09:11:30;;;;;;;24.13;5.90;;;12.70;91.30;;;;;;5008948;28;20071;-64
2023/02/20 09:13:56;;;;;;;;;;;12.80;91.70;;;;;;5011645;28;20157;-66
2023/02/20 09:16:24;;;;;;;14.75;6.13;;;12.70;92.30;;;;;;5011226;28;20057;-65
2023/02/20 09:18:52;;;;;;;11.38;5.88;;;12.70;92.80;;;;;;5010215;28;20085;-66
2023/02/20 09:21:19;;;;;;;17.05;5.82;;;12.70;93.30;;;;;;5011392;28;20074;-62
2023/02/20 09:23:46;;;;;;;14.88;6.10;;;12.70;93.70;;;;;;5007404;28;20088;-66
2023/02/20 09:26:12;;;;;;;21.60;6.47;;;12.70;94.10;;;;;;5011249;28;20140;-65
2023/02/20 09:28:39;;;;;;;;;;;12.70;94.20;;;;;;5011431;28;20182;-65
2023/02/20 09:31:06;;;;;;;15.07;6.13;;;12.70;94.50;;;;;;5011199;28;20423;-65
2023/02/20 09:33:33;;;;;;;18.63;6.57;;;12.60;94.90;;;;;;5011992;28;20079;-64
2023/02/20 09:35:59;;;;;;;;;;;12.50;95.20;;;;;;5011580;28;20075;-64
2023/02/20 09:38:27;;;;;;;19.98;5.97;;;12.40;96.10;;;;;;5009633;28;19958;-65
2023/02/20 09:40:56;;;;;;;15.45;6.20;;;12.40;96.50;;;;;;5010316;28;20447;-63
2023/02/20 09:43:39;;;;;;;16.42;7.13;;;12.40;96.80;;;;;;5010092;28;20075;-66
2023/02/20 09:46:13;;;;;;;16.45;6.60;;;12.30;97.00;;;;;;5009557;28;20185;-64
2023/02/20 09:49:02;;;;;;;16.95;6.40;;;12.20;97.40;;;;;;5010192;28;20070;-64
2023/02/20 09:51:32;;;;;;;17.40;7.30;;;12.10;97.80;;;;;;5003548;28;20099;-64
2023/02/20 09:54:08;;;;;;;15.30;6.00;;;12.10;98.40;;;;;;5009249;28;20568;-65
2023/02/20 09:56:49;;;;;;;23.40;6.35;;;12.20;98.60;;;;;;5009283;28;20540;-65
2023/02/20 09:59:21;;;;;;;11.52;5.88;;;12.20;99.00;;;;;;5011445;28;20101;-66
2023/02/20 10:02:01;;;;;;;23.05;11.07;;;12.10;99.30;;;;;;5010745;28;20093;-62
2023/02/20 10:04:41;;;;;;;16.60;7.32;;;12.20;99.90;;;;;;5010288;28;20172;-61
2023/02/20 10:07:20;;;;;;;16.75;6.00;;;12.90;99.90;;;;;;5010719;28;20078;-61
2023/02/20 10:09:47;;;;;;;15.48;5.68;;;13.30;97.90;;;;;;5009909;28;20120;-62
2023/02/20 10:12:30;;;;;;;16.27;6.65;;;13.40;97.20;;;;;;5007661;28;20082;-61
2023/02/20 10:15:14;;;;;;;18.35;6.63;;;13.50;96.60;;;;;;5009747;28;20077;-62
2023/02/20 10:17:53;;;;;;;19.27;6.00;;;13.50;96.30;;;;;;5009901;28;20075;-62
2023/02/20 10:20:31;;;;;;;16.70;5.88;;;13.50;96.40;;;;;;5008880;28;20078;-60
2023/02/20 10:23:10;;;;;;;13.43;5.68;;;13.50;96.10;;;;;;5007780;28;20158;-61
2023/02/20 10:25:44;;;;;;;22.98;6.38;;;13.50;95.80;;;;;;5007073;28;20082;-60
2023/02/20 10:28:17;;;;;;;10.82;5.78;;;13.40;96.00;;;;;;5010993;28;20077;-63
2023/02/20 10:31:13;;;;;;;19.75;7.05;;;13.60;95.80;;;;;;5008843;28;20121;-61
2023/02/20 10:33:50;;;;;;;15.27;6.28;;;13.50;95.60;;;;;;5010167;28;20074;-60
2023/02/20 10:36:34;;;;;;;17.90;6.35;;;13.60;95.60;;;;;;5008500;28;20078;-62
2023/02/20 10:39:13;;;;;;;14.88;6.78;;;13.50;95.40;;;;;;5008937;28;20073;-63
2023/02/20 10:42:13;;;;;;;18.80;6.35;;;13.40;95.60;;;;;;5008959;28;20768;-60
2023/02/20 10:45:01;;;;;;;17.85;7.20;;;13.40;95.80;;;;;;5008589;28;20082;-61
2023/02/20 10:47:41;;;;;;;16.40;6.05;;;13.40;95.60;;;;;;5009378;28;20087;-62
2023/02/20 10:50:37;;;;;;;13.13;6.32;;;13.30;95.50;;;;;;5009162;28;20153;-61
2023/02/20 10:53:36;;;;;;;22.73;8.98;;;13.30;95.70;;;;;;5004357;28;20139;-61
2023/02/20 10:56:11;;;;;;;182.75;154.70;;;13.40;95.90;;;;;;5010302;28;20494;-63
2023/02/20 10:59:07;;;;;;;47.65;35.70;;;13.30;96.10;;;;;;5010267;28;20074;-61
2023/02/20 11:01:35;;;;;;;96.90;71.22;;;13.40;96.00;;;;;;5009874;28;20139;-62
2023/02/20 11:04:20;;;;;;;112.68;91.70;;;13.20;96.20;;;;;;5009135;28;20540;-61
2023/02/20 11:07:00;;;;;;;71.63;53.22;;;13.20;96.80;;;;;;5008333;28;20141;-61
2023/02/20 11:09:26;;;;;;;52.88;38.38;;;13.20;97.10;;;;;;5009233;28;20082;-61
2023/02/20 11:11:54;;;;;;;41.45;26.17;;;13.00;97.10;;;;;;5009251;28;20074;-60
2023/02/20 11:14:48;;;;;;;27.60;14.25;;;12.80;97.50;;;;;;5008900;28;20125;-61
2023/02/20 11:17:25;;;;;;;32.38;17.17;;;12.60;98.10;;;;;;5009371;28;20136;-62
2023/02/20 11:19:54;;;;;;;33.22;14.23;;;12.90;97.90;;;;;;5009082;28;20066;-60
2023/02/20 11:22:48;;;;;;;23.52;10.85;;;12.90;97.50;;;;;;5008848;28;20074;-60
2023/02/20 11:25:25;;;;;;;16.90;8.93;;;12.80;97.20;;;;;;5005441;28;20467;-62
2023/02/20 11:27:55;;;;;;;24.52;8.98;;;12.50;97.00;;;;;;5007951;28;20088;-61
2023/02/20 11:30:34;;;;;;;21.70;8.38;;;12.40;97.10;;;;;;5009461;28;20129;-62
2023/02/20 11:33:23;;;;;;;23.38;8.52;;;12.60;97.00;;;;;;5008577;28;20090;-62
2023/02/20 11:36:10;;;;;;;18.10;8.15;;;12.60;96.50;;;;;;5012920;28;20610;-61
2023/02/20 11:38:37;;;;;;;21.48;7.72;;;12.70;96.20;;;;;;5011829;28;20113;-62
2023/02/20 11:41:27;;;;;;;27.27;8.05;;;12.60;95.80;;;;;;5012691;28;20362;-62
2023/02/20 11:44:23;;;;;;;19.42;8.23;;;12.60;96.10;;;;;;5011705;28;20125;-60
2023/02/20 11:47:20;;;;;;;26.65;8.88;;;12.60;95.60;;;;;;5011537;28;20448;-62
2023/02/20 11:49:47;;;;;;;25.38;9.00;;;12.60;95.80;;;;;;5011811;28;20212;-61
2023/02/20 11:52:23;;;;;;;16.08;8.65;;;12.60;95.70;;;;;;5012322;28;20073;-61
2023/02/20 11:55:28;;;;;;;22.33;9.20;;;12.60;95.60;;;;;;5012314;28;20122;-61
2023/02/20 11:57:55;;;;;;;15.52;8.00;;;12.70;95.50;;;;;;5014014;28;20152;-62
2023/02/20 12:00:27;;;;;;;16.45;8.65;;;12.70;95.30;;;;;;5013796;28;20066;-62
2023/02/20 12:03:09;;;;;;;17.23;8.43;;;12.70;95.20;;;;;;5012760;28;20086;-62
2023/02/20 12:05:38;;;;;;;24.08;8.27;;;12.80;95.00;;;;;;5012508;28;20086;-61
2023/02/20 12:08:28;;;;;;;18.85;8.48;;;12.60;95.20;;;;;;5011150;28;20070;-61
2023/02/20 12:10:59;;;;;;;18.10;7.20;;;12.60;95.80;;;;;;5012681;28;20574;-60
2023/02/20 12:13:26;;;;;;;18.20;9.23;;;12.70;95.80;;;;;;5012759;28;20495;-61
2023/02/20 12:16:29;;;;;;;21.20;9.50;;;12.70;95.70;;;;;;5012369;28;20524;-60
2023/02/20 12:19:02;;;;;;;26.45;15.57;;;12.70;95.80;;;;;;5010152;28;20619;-62
2023/02/20 12:22:02;;;;;;;37.33;20.08;;;12.60;96.20;;;;;;5011825;28;20070;-63
2023/02/20 12:24:44;;;;;;;36.10;16.15;;;12.60;96.20;;;;;;4988330;28;20098;-63
2023/02/20 12:28:04;;;;;;;35.08;12.82;;;12.40;96.40;;;;;;5007902;28;20078;-62
2023/02/20 12:30:51;;;;;;;24.40;11.35;;;12.40;97.30;;;;;;4953738;28;20076;-62
2023/02/20 12:33:49;;;;;;;25.92;11.73;;;12.50;97.20;;;;;;4953057;28;20115;-61
2023/02/20 12:36:36;;;;;;;20.92;11.10;;;12.30;97.60;;;;;;4953251;28;20076;-60
2023/02/20 12:39:26;;;;;;;20.80;11.25;;;12.30;98.40;;;;;;4958802;28;20091;-63
2023/02/20 12:41:58;;;;;;;23.20;11.45;;;12.30;98.30;;;;;;4933242;28;20590;-61
2023/02/20 12:44:34;;;;;;;29.35;11.38;;;12.20;98.30;;;;;;4953649;28;20484;-61
2023/02/20 12:47:39;;;;;;;27.13;13.20;;;12.00;98.70;;;;;;4951445;28;20118;-61
2023/02/20 12:50:05;;;;;;;25.27;12.23;;;11.90;99.40;;;;;;4953876;28;20449;-63
2023/02/20 12:52:51;;;;;;;27.17;13.18;;;12.00;99.30;;;;;;4953840;28;20088;-63
2023/02/20 12:55:34;;;;;;;27.42;11.75;;;12.10;99.20;;;;;;4952923;28;20548;-60
2023/02/20 12:58:12;;;;;;;26.00;12.70;;;11.90;99.40;;;;;;4951571;28;20577;-61
2023/02/20 13:00:45;;;;;;;32.65;11.80;;;12.00;99.80;;;;;;4957667;28;20128;-60
2023/02/20 13:03:14;;;;;;;28.70;11.88;;;12.10;99.70;;;;;;4954751;28;20076;-61
2023/02/20 13:05:49;;;;;;;27.55;10.68;;;12.00;99.70;;;;;;5008584;28;20102;-61
2023/02/20 13:08:30;;;;;;;28.40;10.38;;;12.00;99.60;;;;;;5011043;28;20154;-60
2023/02/20 13:11:03;;;;;;;31.02;10.93;;;12.10;99.70;;;;;;5011182;28;20555;-61
2023/02/20 13:13:57;;;;;;;25.58;10.23;;;12.10;99.30;;;;;;5010566;28;20078;-62
2023/02/20 13:16:47;;;;;;;24.00;10.48;;;12.10;99.30;;;;;;5011205;28;20151;-62
2023/02/20 13:19:37;;;;;;;22.95;9.50;;;12.00;99.20;;;;;;5010854;28;20078;-61
2023/02/20 13:22:05;;;;;;;24.08;9.55;;;12.00;99.50;;;;;;5010464;28;20563;-61
2023/02/20 13:24:40;;;;;;;22.27;9.50;;;12.00;99.00;;;;;;5010720;28;20067;-61